Time;durP1;ratioP1;P1;durP2;ratioP2;P2;SDS_P1;SDS_P2;PMS_P1;PMS_P2;Temp;Humidity;BMP_temperature;BMP_pressure;BME280_temperature;BME280_humidity;BME280_pressure;Samples;Min_cycle;Max_cycle;Signal;HPM_P1;HPM_P2
2023/12/26 00:00:13;;;;;;;0.10;0.10;;;;;;;10.00;100.00;100271.22;1038363;28;20778;-49
2023/12/26 00:01:16;;;;;;;0.13;0.13;;;;;;;9.97;100.00;100279.66;1033625;28;20358;-55
2023/12/26 00:02:14;;;;;;;0.10;0.10;;;;;;;9.98;100.00;100252.00;1033181;28;20093;-55
2023/12/26 00:03:13;;;;;;;0.52;0.17;;;;;;;9.99;100.00;100269.59;1031367;28;20298;-48
2023/12/26 00:03:58;;;;;;;0.10;0.10;;;;;;;9.97;100.00;100253.03;1027697;28;21254;-56
2023/12/26 00:05:54;;;;;;;0.10;0.10;;;;;;;9.96;100.00;100264.72;1030109;28;20311;-56
2023/12/26 00:06:55;;;;;;;0.20;0.10;;;;;;;9.99;100.00;100274.91;1035971;28;20297;-47
2023/12/26 00:07:42;;;;;;;1.00;0.10;;;;;;;9.95;100.00;100268.44;1032837;28;20298;-56
2023/12/26 00:08:43;;;;;;;0.08;0.08;;;;;;;9.95;100.00;100280.91;1030346;28;20313;-56
2023/12/26 00:09:33;;;;;;;0.30;0.30;;;;;;;9.97;100.00;100274.31;1034768;28;20305;-54
2023/12/26 00:10:19;;;;;;;0.30;0.30;;;;;;;9.97;100.00;100266.34;1034856;28;20890;-49
2023/12/26 00:11:19;;;;;;;0.38;0.10;;;;;;;9.97;100.00;100279.66;1035946;28;20300;-56
2023/12/26 00:12:15;;;;;;;4.57;0.20;;;;;;;9.97;100.00;100274.31;1040669;28;20330;-48
2023/12/26 00:12:56;;;;;;;0.20;0.20;;;;;;;9.96;100.00;100280.69;1032319;28;20305;-56
2023/12/26 00:13:40;;;;;;;0.25;0.10;;;;;;;9.95;100.00;100275.59;1032725;28;20315;-56
2023/12/26 00:14:42;;;;;;;0.10;0.10;;;;;;;9.95;100.00;100280.91;1033930;28;20305;-56
2023/12/26 00:15:35;;;;;;;0.00;0.00;;;;;;;9.93;100.00;100277.66;1042484;28;20311;-56
2023/12/26 00:16:23;;;;;;;1.05;0.20;;;;;;;9.95;100.00;100270.28;1045127;28;20358;-56
2023/12/26 00:17:29;;;;;;;0.10;0.10;;;;;;;9.93;100.00;100270.50;1041935;28;20306;-55
2023/12/26 00:18:07;;;;;;;0.10;0.10;;;;;;;9.95;100.00;100273.75;1034232;28;20316;-47
2023/12/26 00:19:53;;;;;;;0.60;0.10;;;;;;;9.93;100.00;100278.47;1039300;28;20361;-56
2023/12/26 00:20:45;;;;;;;0.10;0.10;;;;;;;9.93;100.00;100285.66;1041349;28;20311;-49
2023/12/26 00:22:00;;;;;;;0.30;0.10;;;;;;;9.90;100.00;100279.75;1034250;28;20390;-55
2023/12/26 00:22:50;;;;;;;1.25;0.22;;;;;;;9.91;100.00;100277.91;1028396;28;20891;-48
2023/12/26 00:23:49;;;;;;;0.10;0.10;;;;;;;9.93;100.00;100283.00;1030145;28;20313;-56
2023/12/26 00:24:46;;;;;;;0.15;0.10;;;;;;;9.91;100.00;100285.88;1032116;28;20715;-56
2023/12/26 00:25:58;;;;;;;0.77;0.77;;;;;;;9.89;100.00;100285.28;1031046;28;20057;-56
2023/12/26 00:26:47;;;;;;;0.17;0.17;;;;;;;9.90;100.00;100282.41;1039323;28;21297;-47
2023/12/26 00:27:36;;;;;;;0.20;0.20;;;;;;;9.91;100.00;100278.72;1041198;28;20041;-46
2023/12/26 00:28:47;;;;;;;3.03;0.10;;;;;;;9.90;100.00;100286.91;1040640;28;20388;-56
2023/12/26 00:29:43;;;;;;;0.75;0.10;;;;;;;9.90;100.00;100284.25;1035930;28;20392;-56
2023/12/26 00:30:30;;;;;;;0.30;0.30;;;;;;;9.88;100.00;100286.34;1027606;28;20885;-56
2023/12/26 00:31:55;;;;;;;0.10;0.10;;;;;;;9.89;100.00;100282.63;1041326;28;20289;-51
2023/12/26 00:32:55;;;;;;;0.47;0.10;;;;;;;9.88;100.00;100279.16;1036012;28;20298;-56
2023/12/26 00:33:57;;;;;;;0.13;0.10;;;;;;;9.88;100.00;100281.81;1034667;28;20308;-49
2023/12/26 00:35:02;;;;;;;0.00;0.00;;;;;;;9.90;100.00;100277.09;1041783;28;21040;-56
2023/12/26 00:36:01;;;;;;;;;;;;;;;9.90;100.00;100278.94;1036602;28;20311;-56
2023/12/26 00:37:10;;;;;;;0.00;0.00;;;;;;;9.89;100.00;100279.97;1035368;28;19973;-47
2023/12/26 00:38:23;;;;;;;0.20;0.08;;;;;;;9.88;100.00;100283.66;1029788;28;20336;-48
2023/12/26 00:39:10;;;;;;;;;;;;;;;;;;;;;
2023/12/26 00:40:31;;;;;;;1.35;0.10;;;;;;;9.87;100.00;100274.88;1027957;28;20314;-47
2023/12/26 00:41:26;;;;;;;2.53;0.10;;;;;;;9.86;100.00;100267.09;1039140;28;20816;-56
2023/12/26 00:42:16;;;;;;;0.17;0.10;;;;;;;9.88;100.00;100286.34;1039053;28;20304;-47
2023/12/26 00:43:11;;;;;;;0.10;0.10;;;;;;;9.87;100.00;100269.56;1038227;28;20922;-56
2023/12/26 00:44:03;;;;;;;0.05;0.05;;;;;;;9.85;100.00;100276.94;1035970;28;20300;-47
2023/12/26 00:44:47;;;;;;;2.47;0.10;;;;;;;9.86;100.00;100280.41;1037330;28;20517;-56
2023/12/26 00:45:32;;;;;;;0.08;0.08;;;;;;;9.84;100.00;100274.50;1035956;28;20313;-46
2023/12/26 00:46:14;;;;;;;0.10;0.10;;;;;;;9.85;100.00;100282.25;1031525;28;20301;-46
2023/12/26 00:47:12;;;;;;;0.20;0.00;;;;;;;9.84;100.00;100279.81;1027805;28;20326;-49
2023/12/26 00:48:24;;;;;;;1.25;0.17;;;;;;;9.86;100.00;100272.41;1020560;28;20303;-46
2023/12/26 00:49:16;;;;;;;2.83;0.10;;;;;;;9.81;100.00;100278.41;1040882;28;20308;-47
2023/12/26 00:50:05;;;;;;;0.63;0.10;;;;;;;9.84;100.00;100279.81;1038916;28;20310;-48
2023/12/26 00:51:03;;;;;;;0.20;0.10;;;;;;;9.84;100.00;100290.44;1041619;28;20307;-51
2023/12/26 00:52:09;;;;;;;0.20;0.20;;;;;;;9.85;100.00;100286.75;1038452;28;20382;-56
2023/12/26 00:52:55;;;;;;;0.08;0.08;;;;;;;9.85;100.00;100281.44;1034194;28;20105;-56
2023/12/26 00:53:46;;;;;;;0.10;0.10;;;;;;;9.86;100.00;100293.69;1033035;28;20301;-47
2023/12/26 00:54:52;;;;;;;0.10;0.10;;;;;;;9.83;100.00;100294.16;1037006;28;20467;-54
2023/12/26 00:55:45;;;;;;;0.88;0.40;;;;;;;9.83;100.00;100284.31;1034320;28;20353;-56
2023/12/26 00:57:02;;;;;;;0.25;0.10;;;;;;;9.81;100.00;100282.94;1036412;28;20830;-49
2023/12/26 00:57:56;;;;;;;0.10;0.10;;;;;;;9.80;100.00;100291.94;1037090;28;20335;-52
2023/12/26 00:58:41;;;;;;;0.10;0.10;;;;;;;9.81;100.00;100290.91;1038240;28;21921;-56
2023/12/26 00:59:46;;;;;;;0.10;0.10;;;;;;;9.79;100.00;100288.47;1039365;28;20313;-50
2023/12/26 01:01:10;;;;;;;;;;;;;;;;;;;;;
2023/12/26 01:03:35;;;;;;;0.13;0.10;;;;;;;9.80;100.00;100299.91;1043307;28;20311;-48
2023/12/26 01:04:29;;;;;;;0.22;0.10;;;;;;;9.83;100.00;100302.13;1041292;28;20300;-56
2023/12/26 01:06:37;;;;;;;0.20;0.20;;;;;;;9.77;100.00;100306.50;1035896;28;20719;-47
2023/12/26 01:07:32;;;;;;;2.47;0.30;;;;;;;9.77;100.00;100295.88;1037741;28;20301;-55
2023/12/26 01:08:52;;;;;;;0.77;0.22;;;;;;;9.74;100.00;100303.47;1033019;28;20313;-47
2023/12/26 01:09:30;;;;;;;0.20;0.20;;;;;;;9.72;100.00;100300.25;1028287;28;21329;-47
2023/12/26 01:10:37;;;;;;;;;;;;;;;9.73;100.00;100286.72;1033000;28;20037;-56
2023/12/26 01:12:38;;;;;;;0.30;0.30;;;;;;;9.72;100.00;100286.94;1039221;28;20319;-55
2023/12/26 01:13:52;;;;;;;1.75;0.45;;;;;;;9.74;100.00;100301.63;1041720;28;20364;-56
2023/12/26 01:14:52;;;;;;;0.82;0.30;;;;;;;9.75;100.00;100302.44;1032270;28;20826;-52
2023/12/26 01:16:27;;;;;;;0.20;0.13;;;;;;;9.73;100.00;100293.88;1037568;28;20447;-56
2023/12/26 01:17:22;;;;;;;1.63;0.25;;;;;;;9.73;100.00;100299.19;1029733;28;20301;-45
2023/12/26 01:18:08;;;;;;;0.17;0.17;;;;;;;9.73;100.00;100288.56;1027962;28;20310;-56
2023/12/26 01:18:58;;;;;;;0.20;0.15;;;;;;;9.72;100.00;100289.59;1030038;28;20318;-55
2023/12/26 01:19:51;;;;;;;0.35;0.20;;;;;;;9.70;100.00;100295.13;1027053;28;20340;-47
2023/12/26 01:20:55;;;;;;;0.88;0.30;;;;;;;9.70;100.00;100292.47;1031100;28;20050;-46
2023/12/26 01:22:00;;;;;;;0.22;0.22;;;;;;;9.68;100.00;100291.09;1022301;29;20322;-56
2023/12/26 01:23:10;;;;;;;0.57;0.32;;;;;;;9.67;100.00;100289.47;1026449;28;20054;-56
2023/12/26 01:23:59;;;;;;;0.10;0.10;;;;;;;9.67;100.00;100292.13;1023770;29;20712;-49
2023/12/26 01:24:47;;;;;;;0.25;0.25;;;;;;;9.68;100.00;100291.91;1023590;28;20319;-47
2023/12/26 01:25:44;;;;;;;0.50;0.50;;;;;;;9.67;100.00;100289.47;1024672;28;20350;-56
2023/12/26 01:26:36;;;;;;;4.97;0.52;;;;;;;9.65;100.00;100291.53;1031278;28;20339;-48
2023/12/26 01:27:38;;;;;;;3.03;0.40;;;;;;;9.65;100.00;100296.84;1029518;28;20304;-47
2023/12/26 01:28:21;;;;;;;0.20;0.20;;;;;;;9.64;100.00;100290.72;1028709;28;20306;-47
2023/12/26 01:29:22;;;;;;;0.22;0.22;;;;;;;9.68;100.00;100291.91;1027998;28;20342;-56
2023/12/26 01:30:09;;;;;;;0.13;0.13;;;;;;;9.66;100.00;100303.78;1026275;28;20353;-54
2023/12/26 01:32:37;;;;;;;;;;;;;;;9.66;100.00;100311.78;1029704;28;20309;-49
2023/12/26 01:33:29;;;;;;;0.10;0.10;;;;;;;9.62;100.00;100308.75;1030252;28;19945;-48
2023/12/26 01:34:31;;;;;;;2.40;0.65;;;;;;;9.65;100.00;100320.78;1031516;28;20082;-48
2023/12/26 01:35:24;;;;;;;0.70;0.30;;;;;;;9.62;100.00;100307.94;1027267;28;20421;-49
2023/12/26 01:36:22;;;;;;;0.30;0.20;;;;;;;9.63;100.00;100314.88;1028351;28;20419;-56
2023/12/26 01:37:35;;;;;;;1.00;0.10;;;;;;;9.63;100.00;100306.91;1031390;28;20306;-55
2023/12/26 01:38:38;;;;;;;0.65;0.32;;;;;;;9.62;100.00;100318.56;1021002;29;22334;-47
2023/12/26 01:39:32;;;;;;;0.30;0.30;;;;;;;9.62;100.00;100319.38;1025401;28;20310;-47
2023/12/26 01:40:18;;;;;;;0.20;0.20;;;;;;;9.55;100.00;100319.44;1029369;28;20455;-49
2023/12/26 01:41:35;;;;;;;1.17;0.35;;;;;;;9.60;100.00;100311.63;1024521;28;20496;-56
2023/12/26 01:42:18;;;;;;;0.57;0.20;;;;;;;9.62;100.00;100307.94;1026405;28;20321;-48
2023/12/26 01:43:50;;;;;;;1.02;0.20;;;;;;;9.59;100.00;100325.97;1032436;28;20320;-55
2023/12/26 01:44:45;;;;;;;1.08;0.25;;;;;;;9.58;100.00;100318.19;1030067;28;20402;-54
2023/12/26 01:45:37;;;;;;;0.88;0.10;;;;;;;9.58;100.00;100313.69;1027165;28;20322;-56
2023/12/26 01:46:38;;;;;;;0.82;0.30;;;;;;;9.56;100.00;100326.38;1030977;28;20312;-56
2023/12/26 01:47:37;;;;;;;1.17;0.25;;;;;;;9.55;100.00;100316.78;1028343;28;20314;-46
2023/12/26 01:48:42;;;;;;;0.30;0.20;;;;;;;9.54;100.00;100320.47;1025478;28;20322;-55
2023/12/26 01:49:30;;;;;;;1.17;0.13;;;;;;;9.54;100.00;100317.00;1016670;29;20341;-56
2023/12/26 01:50:24;;;;;;;0.22;0.20;;;;;;;9.52;100.00;100317.22;1023555;28;20315;-56
2023/12/26 01:52:31;;;;;;;0.70;0.55;;;;;;;9.52;100.00;100319.88;1031878;28;20309;-47
2023/12/26 01:53:31;;;;;;;0.63;0.20;;;;;;;9.53;100.00;100316.19;1043854;28;20315;-48
2023/12/26 01:54:35;;;;;;;0.30;0.30;;;;;;;9.50;100.00;100311.31;1032755;28;20311;-56
2023/12/26 01:55:54;;;;;;;0.17;0.17;;;;;;;9.48;100.00;100313.38;1035258;28;20301;-56
2023/12/26 01:56:32;;;;;;;0.95;0.30;;;;;;;9.50;100.00;100319.28;1033534;28;20358;-55
2023/12/26 01:57:23;;;;;;;0.17;0.17;;;;;;;9.51;100.00;100310.28;1031160;28;20313;-56
2023/12/26 01:58:39;;;;;;;0.63;0.08;;;;;;;9.51;100.00;100314.78;1037107;28;20309;-46
2023/12/26 01:59:52;;;;;;;4.85;0.35;;;;;;;9.49;100.00;100308.88;1043613;28;20303;-48
2023/12/26 02:01:08;;;;;;;1.35;0.30;;;;;;;9.47;100.00;100306.44;1038867;28;20332;-49
2023/12/26 02:02:14;;;;;;;0.20;0.20;;;;;;;9.54;100.00;100311.69;1036129;28;20305;-45
2023/12/26 02:02:54;;;;;;;0.50;0.20;;;;;;;9.53;100.00;100315.38;1038031;28;20313;-49
2023/12/26 02:03:32;;;;;;;0.10;0.10;;;;;;;9.51;100.00;100320.91;1038782;28;20774;-55
2023/12/26 02:04:12;;;;;;;0.20;0.20;;;;;;;9.48;100.00;100321.38;1035233;28;20049;-53
2023/12/26 02:04:56;;;;;;;1.25;1.15;;;;;;;9.50;100.00;100319.28;1039744;28;20372;-56
2023/12/26 02:05:46;;;;;;;2.25;0.30;;;;;;;9.48;100.00;100317.91;1041929;28;20303;-57
2023/12/26 02:06:50;;;;;;;1.30;0.20;;;;;;;9.46;100.00;100326.09;1033377;28;20305;-56
2023/12/26 02:07:48;;;;;;;0.85;0.25;;;;;;;9.50;100.00;100327.28;1034371;28;20301;-51
2023/12/26 02:08:42;;;;;;;;;;;;;;;;;;;;;
2023/12/26 02:09:30;;;;;;;1.40;0.32;;;;;;;9.49;100.00;100315.00;1032690;28;20843;-48
2023/12/26 02:10:39;;;;;;;0.30;0.30;;;;;;;9.50;100.00;100324.63;1039084;28;20315;-56
2023/12/26 02:11:48;;;;;;;0.15;0.15;;;;;;;9.47;100.00;100317.09;1037494;28;20787;-45
2023/12/26 02:12:38;;;;;;;0.30;0.30;;;;;;;9.49;100.00;100324.84;1034785;28;20795;-48
2023/12/26 02:13:17;;;;;;;0.28;0.15;;;;;;;9.47;100.00;100327.72;1032035;28;20807;-56
2023/12/26 02:14:24;;;;;;;0.30;0.20;;;;;;;9.46;100.00;100326.09;1026165;28;20390;-56
2023/12/26 02:15:01;;;;;;;0.45;0.20;;;;;;;9.45;100.00;100323.66;1036017;28;20819;-56
2023/12/26 02:15:49;;;;;;;0.63;0.28;;;;;;;9.46;100.00;100334.06;1033165;28;20312;-46
2023/12/26 02:16:49;;;;;;;1.85;0.30;;;;;;;9.48;100.00;100325.88;1033127;28;20897;-47
2023/12/26 02:17:45;;;;;;;0.13;0.10;;;;;;;9.51;100.00;100322.78;1033949;28;20427;-56
2023/12/26 02:18:37;;;;;;;0.77;0.28;;;;;;;9.51;100.00;100330.75;1038573;28;20311;-56
2023/12/26 02:19:42;;;;;;;;;;;;;;;;;;;;;
2023/12/26 02:20:32;;;;;;;0.77;0.32;;;;;;;9.46;100.00;100334.06;1044353;28;20392;-56
2023/12/26 02:21:15;;;;;;;1.38;0.40;;;;;;;9.52;100.00;100322.53;1037416;28;20308;-45
2023/12/26 02:21:54;;;;;;;0.98;0.60;;;;;;;9.51;100.00;100325.44;1030090;28;20050;-56
2023/12/26 02:22:54;;;;;;;1.67;0.68;;;;;;;9.51;100.00;100334.22;1030364;28;20910;-50
2023/12/26 02:23:55;;;;;;;2.00;0.30;;;;;;;9.50;100.00;100337.09;1033706;28;20871;-56
2023/12/26 02:24:42;;;;;;;1.67;0.55;;;;;;;9.45;100.00;100329.78;1039297;28;20814;-46
2023/12/26 02:25:37;;;;;;;0.60;0.60;;;;;;;9.45;100.00;100334.28;1040934;28;20030;-51
2023/12/26 02:26:35;;;;;;;1.20;0.40;;;;;;;9.47;100.00;100338.34;1036608;28;20292;-47
2023/12/26 02:27:19;;;;;;;1.00;0.55;;;;;;;9.46;100.00;100342.03;1040075;28;20300;-55
2023/12/26 02:28:10;;;;;;;1.45;0.40;;;;;;;9.45;100.00;100331.63;1038030;28;20315;-56
2023/12/26 02:29:06;;;;;;;0.47;0.35;;;;;;;9.46;100.00;100334.06;1034774;28;20426;-46
2023/12/26 02:29:49;;;;;;;2.80;0.50;;;;;;;9.47;100.00;100321.59;1033022;28;20294;-46
2023/12/26 02:30:45;;;;;;;3.55;0.50;;;;;;;9.46;100.00;100328.75;1033837;28;20301;-56
2023/12/26 02:31:57;;;;;;;4.25;0.57;;;;;;;9.49;100.00;100333.63;1034968;28;20730;-56
2023/12/26 02:33:01;;;;;;;7.55;1.00;;;;;;;9.47;100.00;100338.34;1035136;28;20350;-55
2023/12/26 02:33:46;;;;;;;1.42;0.50;;;;;;;9.46;100.00;100346.56;1035264;28;20145;-46
2023/12/26 02:34:26;;;;;;;3.05;0.47;;;;;;;9.45;100.00;100348.41;1026248;28;20551;-48
2023/12/26 02:35:09;;;;;;;4.10;0.73;;;;;;;9.46;100.00;100342.03;1029506;28;20290;-49
2023/12/26 02:36:12;;;;;;;3.65;0.60;;;;;;;9.46;100.00;100349.22;1035031;28;21061;-56
2023/12/26 02:37:14;;;;;;;2.15;0.32;;;;;;;9.44;100.00;100353.94;1033643;28;20342;-48
2023/12/26 02:37:57;;;;;;;3.53;0.80;;;;;;;9.45;100.00;100348.41;1031215;28;20364;-56
2023/12/26 02:38:52;;;;;;;1.17;0.47;;;;;;;9.45;100.00;100351.06;1038315;28;20340;-48
2023/12/26 02:39:56;;;;;;;1.38;0.50;;;;;;;9.45;100.00;100351.06;1044370;28;20311;-45
2023/12/26 02:40:53;;;;;;;3.03;0.60;;;;;;;9.45;100.00;100355.56;1044298;28;20322;-45
2023/12/26 02:41:55;;;;;;;3.22;0.80;;;;;;;9.46;100.00;100358.00;1043071;28;20304;-46
2023/12/26 02:42:59;;;;;;;0.47;0.32;;;;;;;9.45;100.00;100361.69;1035267;28;20285;-45
2023/12/26 02:45:08;;;;;;;1.48;0.70;;;;;;;9.48;100.00;100369.22;1035652;28;20388;-56
2023/12/26 02:45:48;;;;;;;4.57;0.88;;;;;;;9.45;100.00;100364.34;1036489;28;20320;-46
2023/12/26 02:46:45;;;;;;;2.42;0.45;;;;;;;9.49;100.00;100375.34;1035909;28;20396;-56
2023/12/26 02:47:54;;;;;;;0.75;0.43;;;;;;;9.49;100.00;100378.81;1032297;28;20842;-55
2023/12/26 02:48:40;;;;;;;2.08;0.60;;;;;;;9.49;100.00;100370.03;1035113;28;20297;-56
2023/12/26 02:49:34;;;;;;;1.52;0.55;;;;;;;9.48;100.00;100377.19;1039623;28;20056;-56
2023/12/26 02:50:15;;;;;;;2.42;0.80;;;;;;;9.51;100.00;100376.75;1032342;28;20376;-56
2023/12/26 02:50:54;;;;;;;0.80;0.50;;;;;;;9.46;100.00;100368.63;1034508;28;20301;-52
2023/12/26 02:51:51;;;;;;;3.22;1.13;;;;;;;9.49;100.00;100373.50;1032987;28;20301;-51
2023/12/26 02:52:53;;;;;;;2.00;0.63;;;;;;;9.45;100.00;100377.63;1031479;28;20298;-56
2023/12/26 02:53:36;;;;;;;4.30;0.60;;;;;;;9.47;100.00;100380.06;1032618;28;20310;-47
2023/12/26 02:54:34;;;;;;;4.05;1.08;;;;;;;9.47;100.00;100386.22;1035943;28;20910;-48
2023/12/26 02:55:46;;;;;;;1.98;0.40;;;;;;;9.47;100.00;100385.41;1034116;28;20305;-55
2023/12/26 02:56:52;;;;;;;2.65;2.05;;;;;;;9.47;100.00;100390.72;1025304;28;20338;-56
2023/12/26 02:57:40;;;;;;;0.77;0.50;;;;;;;9.46;100.00;100389.91;1038474;28;20324;-56
2023/12/26 02:58:49;;;;;;;3.10;0.73;;;;;;;9.44;100.00;100386.66;1036256;28;20046;-46
2023/12/26 02:59:50;;;;;;;5.38;0.57;;;;;;;9.45;100.00;100388.28;1032176;28;20341;-55
2023/12/26 03:00:40;;;;;;;1.45;0.90;;;;;;;9.47;100.00;100385.41;1031730;28;20847;-53
2023/12/26 03:01:46;;;;;;;4.30;0.80;;;;;;;9.41;100.00;100387.09;1039409;28;20387;-53
2023/12/26 03:03:08;;;;;;;5.57;1.00;;;;;;;9.41;100.00;100389.75;1039869;28;20408;-56
2023/12/26 03:03:44;;;;;;;2.38;0.70;;;;;;;9.39;100.00;100399.78;1038661;28;20968;-47
2023/12/26 03:04:49;;;;;;;12.20;2.17;;;;;;;9.39;100.00;100389.16;1034966;28;20405;-45
2023/12/26 03:05:52;;;;;;;3.50;1.48;;;;;;;9.38;100.00;100390.19;1035368;28;20305;-56
2023/12/26 03:07:39;;;;;;;3.25;0.93;;;;;;;9.44;100.00;100401.78;1034272;28;20302;-56
2023/12/26 03:09:22;;;;;;;5.03;2.15;;;;;;;9.41;100.00;100403.03;1020101;28;20571;-52
2023/12/26 03:10:03;;;;;;;4.43;1.05;;;;;;;9.38;100.00;100408.78;1042578;28;21006;-56
2023/12/26 03:12:41;;;;;;;5.82;1.35;;;;;;;9.34;100.00;100396.97;1026919;28;20860;-45
2023/12/26 03:13:41;;;;;;;3.38;0.60;;;;;;;9.38;100.00;100403.47;1028622;28;20343;-56
2023/12/26 03:14:19;;;;;;;4.72;1.08;;;;;;;9.36;100.00;100400.22;1042293;28;20297;-54
2023/12/26 03:15:11;;;;;;;4.28;1.00;;;;;;;9.34;100.00;100402.28;1035659;28;20336;-51
2023/12/26 03:16:09;;;;;;;2.15;0.90;;;;;;;9.33;100.00;100400.66;1037736;28;20876;-46
2023/12/26 03:18:26;;;;;;;7.68;0.98;;;;;;;9.31;100.00;100413.34;1039133;28;20049;-55
2023/12/26 03:19:22;;;;;;;2.92;0.85;;;;;;;9.31;100.00;100413.34;1037271;28;20402;-46
2023/12/26 03:20:10;;;;;;;5.45;0.90;;;;;;;9.32;100.00;100419.50;1036453;28;20328;-47
2023/12/26 03:20:56;;;;;;;4.05;1.05;;;;;;;9.28;100.00;100414.59;1029822;28;20398;-55
2023/12/26 03:22:00;;;;;;;2.05;0.50;;;;;;;9.30;100.00;100414.38;1037936;28;20963;-56
2023/12/26 03:22:58;;;;;;;6.00;0.93;;;;;;;9.29;100.00;100418.06;1035211;28;20061;-56
2023/12/26 03:23:43;;;;;;;1.55;0.70;;;;;;;9.26;100.00;100407.88;1034261;28;20298;-46
2023/12/26 03:24:43;;;;;;;4.47;0.75;;;;;;;9.26;100.00;100423.81;1032326;28;20320;-55
2023/12/26 03:25:52;;;;;;;4.55;1.25;;;;;;;9.25;100.00;100427.50;1033673;28;20304;-46
2023/12/26 03:27:05;;;;;;;0.80;0.57;;;;;;;9.23;100.00;100429.56;1034217;28;20304;-56
2023/12/26 03:28:13;;;;;;;4.28;0.60;;;;;;;9.23;100.00;100433.03;1036671;28;20325;-56
2023/12/26 03:29:14;;;;;;;1.83;0.77;;;;;;;9.17;100.00;100433.09;1035326;28;20050;-55
2023/12/26 03:30:26;;;;;;;2.92;0.50;;;;;;;9.15;100.00;100422.69;1031019;28;20305;-56
2023/12/26 03:31:39;;;;;;;3.15;0.80;;;;;;;9.14;100.00;100436.19;1031827;28;20723;-56
2023/12/26 03:32:33;;;;;;;3.85;0.60;;;;;;;9.11;100.00;100436.63;1035622;28;20312;-47
2023/12/26 03:33:24;;;;;;;6.55;1.10;;;;;;;9.12;100.00;100435.59;1035305;28;20309;-46
2023/12/26 03:34:30;;;;;;;2.95;0.40;;;;;;;9.12;100.00;100438.25;1030725;28;20290;-54
2023/12/26 03:35:25;;;;;;;7.03;0.95;;;;;;;9.08;100.00;100458.31;1031722;28;20795;-48
2023/12/26 03:36:12;;;;;;;;;;;;;;;9.07;100.00;100446.06;1031385;28;20324;-56
2023/12/26 03:36:54;;;;;;;8.38;0.85;;;;;;;9.04;100.00;100438.50;1033820;28;19928;-57
2023/12/26 03:37:26;;;;;;;9.70;1.77;;;;;;;9.07;100.00;100460.16;1039280;28;20323;-56
2023/12/26 03:37:58;;;;;;;2.15;0.80;;;;;;;9.05;100.00;100450.78;1039574;28;20327;-56
2023/12/26 03:38:29;;;;;;;7.65;0.77;;;;;;;9.06;100.00;100452.41;1041107;28;20292;-56
2023/12/26 03:39:01;;;;;;;4.53;1.25;;;;;;;9.07;100.00;100443.41;1042922;28;20385;-56
2023/12/26 03:39:34;;;;;;;5.90;0.60;;;;;;;9.05;100.00;100451.59;1043539;28;20327;-56
2023/12/26 03:40:07;;;;;;;1.63;0.80;;;;;;;9.02;100.00;100452.00;1044967;28;20660;-56
2023/12/26 03:40:38;;;;;;;2.30;0.80;;;;;;;9.02;100.00;100448.53;1038867;28;20316;-56
2023/12/26 03:41:10;;;;;;;4.47;1.13;;;;;;;9.01;100.00;100449.56;1038121;28;20383;-56
2023/12/26 03:41:44;;;;;;;5.47;1.05;;;;;;;9.01;100.00;100438.94;1038803;28;20806;-56
2023/12/26 03:42:16;;;;;;;3.85;0.60;;;;;;;9.06;100.00;100441.78;1038746;28;20304;-56
2023/12/26 03:42:47;;;;;;;12.07;1.23;;;;;;;9.02;100.00;100445.88;1035208;28;20387;-56
2023/12/26 03:43:20;;;;;;;5.32;1.05;;;;;;;9.02;100.00;100451.19;1037434;28;20680;-56
2023/12/26 03:43:52;;;;;;;2.35;1.02;;;;;;;9.02;100.00;100436.06;1031320;28;20435;-56
2023/12/26 03:44:24;;;;;;;5.05;0.93;;;;;;;9.03;100.00;100432.38;1039881;28;20340;-56
2023/12/26 03:44:56;;;;;;;5.68;1.92;;;;;;;9.02;100.00;100452.00;1039756;28;20303;-56
2023/12/26 03:45:29;;;;;;;3.65;0.95;;;;;;;9.07;100.00;100446.06;1039262;28;20307;-56
2023/12/26 03:46:02;;;;;;;2.72;0.57;;;;;;;9.00;100.00;100443.44;1039083;28;20670;-56
2023/12/26 03:46:34;;;;;;;4.28;1.15;;;;;;;8.97;100.00;100447.34;1035735;28;20953;-56
2023/12/26 03:47:05;;;;;;;3.25;0.90;;;;;;;9.01;100.00;100444.25;1034805;28;20696;-56
2023/12/26 03:47:37;;;;;;;1.35;0.82;;;;;;;8.97;100.00;100455.31;1035002;28;20312;-56
2023/12/26 03:48:09;;;;;;;3.22;1.50;;;;;;;8.98;100.00;100451.63;1041824;28;20337;-56
2023/12/26 03:48:41;;;;;;;5.97;1.20;;;;;;;8.92;100.00;100441.84;1043815;28;20304;-56
2023/12/26 03:49:13;;;;;;;5.35;1.58;;;;;;;8.90;100.00;100453.72;1043096;28;20310;-56
2023/12/26 03:49:45;;;;;;;3.85;1.02;;;;;;;8.91;100.00;100450.84;1038778;28;20675;-56
2023/12/26 03:50:16;;;;;;;6.07;1.00;;;;;;;8.91;100.00;100455.34;1038741;28;20288;-57
2023/12/26 03:50:48;;;;;;;4.65;1.50;;;;;;;8.86;100.00;100453.34;1041815;28;20302;-56
2023/12/26 03:51:20;;;;;;;3.70;1.05;;;;;;;8.90;100.00;100451.88;1045694;28;20306;-56
2023/12/26 03:51:52;;;;;;;2.72;1.05;;;;;;;8.90;100.00;100454.53;1046473;28;20299;-56
2023/12/26 03:52:23;;;;;;;6.30;1.58;;;;;;;8.85;100.00;100454.38;1043804;28;20773;-46
2023/12/26 03:52:55;;;;;;;7.45;1.52;;;;;;;8.87;100.00;100454.16;1041220;28;20300;-46
2023/12/26 03:53:27;;;;;;;5.07;1.13;;;;;;;8.87;100.00;100456.81;1034644;28;20304;-48
2023/12/26 03:53:59;;;;;;;4.45;0.77;;;;;;;8.86;100.00;100458.66;1034725;28;20304;-47
2023/12/26 03:54:31;;;;;;;2.90;0.90;;;;;;;8.83;100.00;100453.78;1031571;28;20538;-45
2023/12/26 03:55:03;;;;;;;4.03;0.85;;;;;;;8.83;100.00;100459.09;1033385;28;20795;-46
2023/12/26 03:55:34;;;;;;;7.93;0.98;;;;;;;8.83;100.00;100459.09;1035577;28;21555;-46
2023/12/26 03:56:06;;;;;;;6.18;0.98;;;;;;;8.83;100.00;100461.75;1032763;28;20803;-46
2023/12/26 03:56:38;;;;;;;5.90;0.98;;;;;;;8.76;100.00;100463.59;1035406;28;20293;-48
2023/12/26 03:57:10;;;;;;;2.67;0.85;;;;;;;8.77;100.00;100459.94;1034641;28;20347;-48
2023/12/26 03:57:41;;;;;;;1.85;0.60;;;;;;;8.76;100.00;100468.91;1031699;28;20400;-47
2023/12/26 03:58:13;;;;;;;9.23;1.20;;;;;;;8.79;100.00;100462.41;1035789;28;20304;-46
2023/12/26 03:58:45;;;;;;;4.35;0.70;;;;;;;8.78;100.00;100474.84;1031958;28;20337;-49
2023/12/26 03:59:17;;;;;;;4.93;0.88;;;;;;;8.78;100.00;100466.06;1035440;28;20301;-48
2023/12/26 03:59:48;;;;;;;4.63;0.90;;;;;;;8.81;100.00;100471.78;1042964;28;20306;-47
2023/12/26 04:00:20;;;;;;;8.13;0.80;;;;;;;8.78;100.00;100466.88;1039222;28;20300;-46
2023/12/26 04:00:52;;;;;;;3.95;1.33;;;;;;;8.83;100.00;100467.06;1038336;28;20830;-49
2023/12/26 04:01:24;;;;;;;2.80;0.57;;;;;;;8.82;100.00;100468.09;1038989;28;20299;-48
2023/12/26 04:01:55;;;;;;;3.05;1.10;;;;;;;8.78;100.00;100460.75;1039145;28;20777;-47
2023/12/26 04:02:27;;;;;;;4.72;0.90;;;;;;;8.74;100.00;100465.66;1042833;28;20800;-46
2023/12/26 04:02:59;;;;;;;3.05;1.42;;;;;;;8.76;100.00;100462.78;1045614;28;20797;-49
2023/12/26 04:03:35;;;;;;;6.13;0.80;;;;;;;8.78;100.00;100474.84;1046786;28;20863;-47
2023/12/26 04:04:06;;;;;;;5.13;0.90;;;;;;;8.75;100.00;100469.94;1042741;28;20299;-47
2023/12/26 04:04:38;;;;;;;3.25;1.02;;;;;;;8.68;100.00;100480.59;1043389;28;20291;-48
2023/12/26 04:05:10;;;;;;;4.57;1.48;;;;;;;8.60;100.00;100467.59;1038921;28;20302;-47
2023/12/26 04:05:42;;;;;;;3.10;1.20;;;;;;;8.71;100.00;100466.09;1043258;28;20327;-46
2023/12/26 04:06:14;;;;;;;6.47;1.00;;;;;;;8.64;100.00;100475.94;1046947;28;20309;-49
2023/12/26 04:06:46;;;;;;;6.35;1.15;;;;;;;8.63;100.00;100479.63;1039209;28;20386;-46
2023/12/26 04:07:18;;;;;;;2.90;0.88;;;;;;;8.61;100.00;100471.06;1036036;28;20774;-46
2023/12/26 04:07:50;;;;;;;3.00;0.70;;;;;;;8.68;100.00;100477.13;1037557;28;20318;-49
2023/12/26 04:08:22;;;;;;;6.28;0.77;;;;;;;8.70;100.00;100475.09;1034863;28;20312;-47
2023/12/26 04:08:54;;;;;;;3.75;1.45;;;;;;;8.61;100.00;100479.03;1032175;28;20305;-48
2023/12/26 04:09:26;;;;;;;6.75;1.25;;;;;;;8.59;100.00;100475.78;1035252;28;20297;-46
2023/12/26 04:09:58;;;;;;;5.47;1.05;;;;;;;8.56;100.00;100465.56;1035321;28;20296;-46
2023/12/26 04:10:29;;;;;;;8.88;1.20;;;;;;;8.55;100.00;100474.56;1042417;28;20393;-56
2023/12/26 04:11:01;;;;;;;6.15;1.13;;;;;;;8.57;100.00;100475.16;1039185;28;20776;-56
2023/12/26 04:11:33;;;;;;;7.95;1.40;;;;;;;8.61;100.00;100471.88;1042766;28;20406;-56
2023/12/26 04:12:05;;;;;;;4.20;1.77;;;;;;;8.59;100.00;100478.41;1042718;28;20823;-56
2023/12/26 04:12:36;;;;;;;2.70;1.25;;;;;;;8.55;100.00;100471.91;1043142;28;20566;-57